Terminal Aerodrome Forecast
Issued by NWS

Home | Current Version | Previous Version | Text Only | Print | Product List | Glossary On
Versions: 1 2 3 4 5 6 7 8 9 10 11 12 13 14 15
893
FTUS43 KAPX 241735
TAFTVC
TAF
KTVC 241735Z 2418/2518 10006KT P6SM SCT050 BKN100
     FM250000 10008KT P6SM BKN100 WS020/11030KT
     FM250300 11012G25KT P6SM OVC050 WS020/11035KT
     FM250500 12015G29KT P6SM VCSH OVC025 WS020/13045KT
     FM250700 13016G29KT 5SM RA OVC010 WS020/14055KT
     FM251000 17015G28KT 5SM RA OVC015 WS020/19045KT
     FM251200 23017G33KT P6SM BKN015
     FM251700 24021G33KT P6SM BKN060=

USA.gov is the U.S. government's official web portal to all federal, state and local government web resources and services.